createdAt,value
2018-05-03T00:00:38.623Z,1010.99
2018-05-03T00:01:38.649Z,1011.01
2018-05-03T00:02:38.669Z,1011.01
2018-05-03T00:03:38.692Z,1011.02
2018-05-03T00:04:38.717Z,1011.03
2018-05-03T00:05:38.743Z,1011.02
2018-05-03T00:06:38.762Z,1011.01
2018-05-03T00:07:38.788Z,1011.04
2018-05-03T00:08:38.810Z,1010.99
2018-05-03T00:09:38.841Z,1011.04
2018-05-03T00:10:38.860Z,1011.04
2018-05-03T00:11:38.880Z,1011.04
2018-05-03T00:12:38.907Z,1011.03
2018-05-03T00:13:38.932Z,1011.02
2018-05-03T00:14:38.956Z,1010.98
2018-05-03T00:15:38.982Z,1010.96
2018-05-03T00:16:38.997Z,1010.96
2018-05-03T00:17:39.028Z,1010.94
2018-05-03T00:18:39.050Z,1010.93
2018-05-03T00:19:39.076Z,1010.85
2018-05-03T00:20:39.185Z,1010.83
2018-05-03T00:21:39.116Z,1010.86
2018-05-03T00:22:39.146Z,1010.85
2018-05-03T00:23:39.169Z,1010.84
2018-05-03T00:24:39.191Z,1010.84
2018-05-03T00:25:39.218Z,1010.80
2018-05-03T00:26:39.242Z,1010.81
2018-05-03T00:27:39.272Z,1010.83
2018-05-03T00:28:39.282Z,1010.83
2018-05-03T00:29:39.307Z,1010.84
2018-05-03T00:30:39.332Z,1010.85
2018-05-03T00:31:39.358Z,1010.87
2018-05-03T00:32:39.378Z,1010.88
2018-05-03T00:33:39.401Z,1010.88
2018-05-03T00:34:39.427Z,1010.90
2018-05-03T00:35:39.449Z,1010.89
2018-05-03T00:36:39.475Z,1010.91
2018-05-03T00:37:39.501Z,1010.93
2018-05-03T00:38:39.519Z,1010.96
2018-05-03T00:39:39.545Z,1010.96
2018-05-03T00:40:39.566Z,1010.95
2018-05-03T00:41:39.593Z,1010.98
2018-05-03T00:42:39.611Z,1010.99
2018-05-03T00:43:39.641Z,1010.98
2018-05-03T00:44:39.660Z,1010.95
2018-05-03T00:45:39.686Z,1010.97
2018-05-03T00:46:39.705Z,1010.97
2018-05-03T00:47:39.731Z,1010.98
2018-05-03T00:48:39.756Z,1010.98
2018-05-03T00:49:39.780Z,1010.95
2018-05-03T00:50:39.798Z,1010.93
2018-05-03T00:51:39.828Z,1010.92
2018-05-03T00:52:39.845Z,1010.93
2018-05-03T00:53:39.869Z,1010.92
2018-05-03T00:54:39.894Z,1010.90
2018-05-03T00:55:39.923Z,1010.92
2018-05-03T00:56:39.941Z,1010.90
2018-05-03T00:57:39.965Z,1010.88
2018-05-03T00:58:39.990Z,1010.86
2018-05-03T00:59:40.015Z,1010.80
2018-05-03T01:00:40.039Z,1010.81
2018-05-03T01:01:40.065Z,1010.82
2018-05-03T01:02:40.092Z,1010.85
2018-05-03T01:03:40.104Z,1010.82
2018-05-03T01:04:40.136Z,1010.85
2018-05-03T01:05:40.153Z,1010.84
2018-05-03T01:06:40.173Z,1010.85
2018-05-03T01:07:40.202Z,1010.85
2018-05-03T01:08:40.224Z,1010.86
2018-05-03T01:09:40.252Z,1010.91
2018-05-03T01:10:40.271Z,1010.89
2018-05-03T01:11:40.296Z,1010.90
2018-05-03T01:12:40.318Z,1010.90
2018-05-03T01:13:40.338Z,1010.90
2018-05-03T01:14:40.362Z,1010.91
2018-05-03T01:15:40.390Z,1010.91
2018-05-03T01:16:40.409Z,1010.90
2018-05-03T01:17:40.437Z,1010.90
2018-05-03T01:18:40.454Z,1010.90
2018-05-03T01:19:40.478Z,1010.87
2018-05-03T01:20:40.506Z,1010.86
2018-05-03T01:21:40.529Z,1010.85
2018-05-03T01:22:40.553Z,1010.82
2018-05-03T01:23:40.575Z,1010.82
2018-05-03T01:24:40.596Z,1010.87
2018-05-03T01:25:40.623Z,1010.84
2018-05-03T01:26:40.652Z,1010.88
2018-05-03T01:27:40.666Z,1010.90
2018-05-03T01:28:40.690Z,1010.88
2018-05-03T01:29:40.716Z,1010.89
2018-05-03T01:30:40.741Z,1010.91
2018-05-03T01:31:40.760Z,1010.89
2018-05-03T01:32:40.782Z,1010.90
2018-05-03T01:33:40.807Z,1010.88
2018-05-03T01:34:40.829Z,1010.87
2018-05-03T01:35:40.876Z,1010.86
2018-05-03T01:36:40.877Z,1010.87
2018-05-03T01:37:40.897Z,1010.88
2018-05-03T01:38:40.923Z,1010.88
2018-05-03T01:39:40.942Z,1010.90
2018-05-03T01:40:40.967Z,1010.91
2018-05-03T01:41:40.994Z,1010.91
2018-05-03T01:42:41.013Z,1010.93
2018-05-03T01:43:41.042Z,1010.90
2018-05-03T01:44:41.064Z,1010.88
2018-05-03T01:45:41.082Z,1010.88
2018-05-03T01:46:41.113Z,1010.85
2018-05-03T01:47:41.127Z,1010.87
2018-05-03T01:48:41.153Z,1010.87
2018-05-03T01:49:41.177Z,1010.86
2018-05-03T01:50:41.198Z,1010.85
2018-05-03T01:51:41.222Z,1010.88
2018-05-03T01:52:41.248Z,1010.92
2018-05-03T01:53:41.276Z,1010.94
2018-05-03T01:54:41.291Z,1010.96
2018-05-03T01:55:41.316Z,1010.98
2018-05-03T01:56:41.340Z,1010.98
2018-05-03T01:57:41.366Z,1011.01
2018-05-03T01:58:41.386Z,1011.03
2018-05-03T01:59:41.410Z,1011.04
2018-05-03T02:00:41.431Z,1011.03
2018-05-03T02:01:41.457Z,1011.03
2018-05-03T02:02:41.476Z,1010.99
2018-05-03T02:03:41.501Z,1011.03
2018-05-03T02:04:41.529Z,1011.03
2018-05-03T02:05:41.546Z,1010.98
2018-05-03T02:06:41.565Z,1010.98
2018-05-03T02:07:41.593Z,1011.01
2018-05-03T02:08:41.619Z,1011.02
2018-05-03T02:09:41.638Z,1011.03
2018-05-03T02:10:41.662Z,1011.03
2018-05-03T02:11:41.683Z,1011.07
2018-05-03T02:12:41.708Z,1011.05
2018-05-03T02:13:41.734Z,1011.03
2018-05-03T02:14:41.757Z,1011.08
2018-05-03T02:15:41.776Z,1011.10
2018-05-03T02:16:41.801Z,1011.07
2018-05-03T02:17:41.825Z,1011.08
2018-05-03T02:18:41.849Z,1011.04
2018-05-03T02:19:41.873Z,1011.05
2018-05-03T02:20:41.895Z,1011.04
2018-05-03T02:21:41.915Z,1011.06
2018-05-03T02:22:41.939Z,1011.07
2018-05-03T02:23:41.964Z,1011.06
2018-05-03T02:24:41.983Z,1011.11
2018-05-03T02:25:42.011Z,1011.11
2018-05-03T02:26:42.033Z,1011.09
2018-05-03T02:27:42.051Z,1011.06
2018-05-03T02:28:42.075Z,1011.05
2018-05-03T02:29:42.095Z,1011.03
2018-05-03T02:30:42.125Z,1011.07
2018-05-03T02:31:42.146Z,1011.03
2018-05-03T02:32:42.172Z,1011.04
2018-05-03T02:33:42.194Z,1011.05
2018-05-03T02:34:42.215Z,1011.05
2018-05-03T02:35:42.242Z,1011.06
2018-05-03T02:36:42.260Z,1011.07
2018-05-03T02:37:42.283Z,1011.08
2018-05-03T02:38:42.307Z,1011.09
2018-05-03T02:39:42.342Z,1011.16
2018-05-03T02:40:42.354Z,1011.15
2018-05-03T02:41:42.374Z,1011.13
2018-05-03T02:42:42.399Z,1011.19
2018-05-03T02:43:42.425Z,1011.20
2018-05-03T02:44:42.453Z,1011.20
2018-05-03T02:45:42.469Z,1011.22
2018-05-03T02:46:42.498Z,1011.20
2018-05-03T02:47:42.511Z,1011.16
2018-05-03T02:48:42.535Z,1011.18
2018-05-03T02:49:42.564Z,1011.19
2018-05-03T02:50:42.579Z,1011.23
2018-05-03T02:51:42.605Z,1011.26
2018-05-03T02:52:42.631Z,1011.19
2018-05-03T02:53:42.650Z,1011.18
2018-05-03T02:54:42.671Z,1011.18
2018-05-03T02:55:42.695Z,1011.25
2018-05-03T02:56:42.715Z,1011.21
2018-05-03T02:57:42.740Z,1011.20
2018-05-03T02:58:42.764Z,1011.17
2018-05-03T02:59:42.785Z,1011.16
2018-05-03T03:00:42.812Z,1011.16
2018-05-03T03:01:42.829Z,1011.16
2018-05-03T03:02:42.856Z,1011.17
2018-05-03T03:03:42.874Z,1011.20
2018-05-03T03:04:42.905Z,1011.26
2018-05-03T03:05:42.923Z,1011.24
2018-05-03T03:06:42.945Z,1011.25
2018-05-03T03:07:42.970Z,1011.33
2018-05-03T03:08:42.993Z,1011.34
2018-05-03T03:09:43.168Z,1011.38
2018-05-03T03:10:43.049Z,1011.42
2018-05-03T03:11:43.065Z,1011.43
2018-05-03T03:12:43.089Z,1011.45
2018-05-03T03:13:43.104Z,1011.42
2018-05-03T03:14:43.133Z,1011.43
2018-05-03T03:15:43.149Z,1011.47
2018-05-03T03:16:43.177Z,1011.47
2018-05-03T03:17:43.194Z,1011.46
2018-05-03T03:18:43.223Z,1011.48
2018-05-03T03:19:43.246Z,1011.52
2018-05-03T03:20:43.262Z,1011.51
2018-05-03T03:21:43.289Z,1011.55
2018-05-03T03:22:43.312Z,1011.53
2018-05-03T03:23:43.336Z,1011.63
2018-05-03T03:24:43.356Z,1011.61
2018-05-03T03:25:43.378Z,1011.62
2018-05-03T03:26:43.402Z,1011.61
2018-05-03T03:27:43.423Z,1011.66
2018-05-03T03:28:43.448Z,1011.64
2018-05-03T03:29:43.474Z,1011.69
2018-05-03T03:30:43.492Z,1011.67
2018-05-03T03:31:43.512Z,1011.69
2018-05-03T03:32:43.533Z,1011.72
2018-05-03T03:33:43.559Z,1011.73
2018-05-03T03:34:43.583Z,1011.75
2018-05-03T03:35:43.602Z,1011.74
2018-05-03T03:36:43.636Z,1011.72
2018-05-03T03:37:43.650Z,1011.71
2018-05-03T03:38:43.676Z,1011.74
2018-05-03T03:39:43.697Z,1011.78
2018-05-03T03:40:43.722Z,1011.75
2018-05-03T03:41:43.737Z,1011.78
2018-05-03T03:42:43.767Z,1011.79
2018-05-03T03:43:43.786Z,1011.80
2018-05-03T03:44:43.810Z,1011.80
2018-05-03T03:45:43.828Z,1011.87
2018-05-03T03:46:43.852Z,1011.82
2018-05-03T03:47:43.870Z,1011.90
2018-05-03T03:48:43.900Z,1011.82
2018-05-03T03:49:43.922Z,1011.85
2018-05-03T03:50:43.949Z,1011.82
2018-05-03T03:51:43.961Z,1011.89
2018-05-03T03:52:43.984Z,1011.87
2018-05-03T03:53:44.011Z,1011.87
2018-05-03T03:54:44.034Z,1011.87
2018-05-03T03:55:44.056Z,1011.88
2018-05-03T03:56:44.079Z,1011.91
2018-05-03T03:57:44.098Z,1011.93
2018-05-03T03:58:44.124Z,1011.87
2018-05-03T03:59:44.150Z,1011.90
2018-05-03T04:00:44.168Z,1011.97
2018-05-03T04:01:44.191Z,1011.96
2018-05-03T04:02:44.215Z,1012.00
2018-05-03T04:03:44.232Z,1012.05
2018-05-03T04:04:44.255Z,1012.07
2018-05-03T04:05:44.279Z,1012.05
2018-05-03T04:06:44.307Z,1012.07
2018-05-03T04:07:44.324Z,1012.11
2018-05-03T04:08:44.350Z,1012.08
2018-05-03T04:09:44.366Z,1012.06
2018-05-03T04:10:44.394Z,1012.10
2018-05-03T04:11:44.410Z,1012.08
2018-05-03T04:12:44.431Z,1012.09
2018-05-03T04:13:44.455Z,1012.11
2018-05-03T04:14:44.479Z,1012.13
2018-05-03T04:15:44.500Z,1012.16
2018-05-03T04:16:44.525Z,1012.18
2018-05-03T04:17:44.546Z,1012.14
2018-05-03T04:18:44.570Z,1012.13
2018-05-03T04:19:44.591Z,1012.18
2018-05-03T04:20:44.615Z,1012.16
2018-05-03T04:21:44.640Z,1012.19
2018-05-03T04:22:44.660Z,1012.19
2018-05-03T04:23:44.682Z,1012.11
2018-05-03T04:24:44.705Z,1012.18
2018-05-03T04:25:44.729Z,1012.19
2018-05-03T04:26:44.754Z,1012.21
2018-05-03T04:27:44.788Z,1012.24
2018-05-03T04:28:44.794Z,1012.20
2018-05-03T04:29:44.814Z,1012.23
2018-05-03T04:30:44.839Z,1012.17
2018-05-03T04:31:44.859Z,1012.31
2018-05-03T04:32:44.887Z,1012.32
2018-05-03T04:33:44.910Z,1012.35
2018-05-03T04:34:44.924Z,1012.31
2018-05-03T04:35:44.954Z,1012.34
2018-05-03T04:36:44.980Z,1012.38
2018-05-03T04:37:44.994Z,1012.42
2018-05-03T04:38:45.020Z,1012.43
2018-05-03T04:39:45.040Z,1012.48
2018-05-03T04:40:45.067Z,1012.46
2018-05-03T04:41:45.090Z,1012.51
2018-05-03T04:42:45.110Z,1012.53
2018-05-03T04:43:45.136Z,1012.60
2018-05-03T04:44:45.155Z,1012.60
2018-05-03T04:45:45.183Z,1012.53
2018-05-03T04:46:45.200Z,1012.65
2018-05-03T04:47:45.220Z,1012.57
2018-05-03T04:48:45.244Z,1012.62
2018-05-03T04:49:45.268Z,1012.63
2018-05-03T04:50:45.289Z,1012.66
2018-05-03T04:51:45.315Z,1012.67
2018-05-03T04:52:45.339Z,1012.68
2018-05-03T04:53:45.359Z,1012.68
2018-05-03T04:54:45.389Z,1012.74
2018-05-03T04:55:45.406Z,1012.74
2018-05-03T04:56:45.427Z,1012.78
2018-05-03T04:57:45.451Z,1012.80
2018-05-03T04:58:45.473Z,1012.78
2018-05-03T04:59:45.499Z,1012.76
2018-05-03T05:00:45.518Z,1012.81
2018-05-03T05:01:45.544Z,1012.87
2018-05-03T05:02:45.565Z,1012.91
2018-05-03T05:03:45.589Z,1012.88
2018-05-03T05:04:45.684Z,1012.90
2018-05-03T05:05:45.637Z,1012.89
2018-05-03T05:06:45.668Z,1012.88
2018-05-03T05:07:45.682Z,1012.92
2018-05-03T05:08:45.704Z,1012.96
2018-05-03T05:09:45.730Z,1012.94
2018-05-03T05:10:45.751Z,1012.96
2018-05-03T05:11:45.773Z,1013.00
2018-05-03T05:12:45.796Z,1013.03
2018-05-03T05:13:45.818Z,1013.05
2018-05-03T05:14:45.837Z,1013.12
2018-05-03T05:15:45.863Z,1013.14
2018-05-03T05:16:45.887Z,1013.10
2018-05-03T05:17:45.909Z,1013.17
2018-05-03T05:18:45.934Z,1013.21
2018-05-03T05:19:45.952Z,1013.20
2018-05-03T05:20:45.984Z,1013.22
2018-05-03T05:21:46.003Z,1013.24
2018-05-03T05:22:46.026Z,1013.37
2018-05-03T05:23:46.051Z,1013.40
2018-05-03T05:24:46.076Z,1013.43
2018-05-03T05:25:46.093Z,1013.61
2018-05-03T05:26:46.120Z,1013.46
2018-05-03T05:27:46.142Z,1013.64
2018-05-03T05:28:46.163Z,1013.58
2018-05-03T05:29:46.183Z,1013.79
2018-05-03T05:30:46.284Z,1013.59
2018-05-03T05:31:46.236Z,1013.60
2018-05-03T05:32:46.255Z,1013.57
2018-05-03T05:33:46.285Z,1013.60
2018-05-03T05:34:46.304Z,1013.62
2018-05-03T05:35:46.330Z,1013.64
2018-05-03T05:36:46.347Z,1013.72
2018-05-03T05:37:46.373Z,1013.77
2018-05-03T05:38:46.402Z,1013.73
2018-05-03T05:39:46.418Z,1013.65
2018-05-03T05:40:46.443Z,1013.69
2018-05-03T05:41:46.475Z,1013.66
2018-05-03T05:42:46.488Z,1013.69
2018-05-03T05:43:46.513Z,1013.78
2018-05-03T05:44:46.533Z,1013.81
2018-05-03T05:45:46.556Z,1013.86
2018-05-03T05:46:46.578Z,1013.88
2018-05-03T05:47:46.606Z,1013.86
2018-05-03T05:48:46.626Z,1013.86
2018-05-03T05:49:46.656Z,1013.91
2018-05-03T05:50:46.673Z,1013.79
2018-05-03T05:51:46.696Z,1013.76
2018-05-03T05:52:46.720Z,1013.77
2018-05-03T05:53:46.745Z,1013.77
2018-05-03T05:54:46.765Z,1013.77
2018-05-03T05:55:46.787Z,1013.84
2018-05-03T05:56:46.899Z,1013.83
2018-05-03T05:57:46.836Z,1013.87
2018-05-03T05:58:46.859Z,1013.79
2018-05-03T05:59:46.883Z,1013.86
2018-05-03T06:00:46.906Z,1013.88
2018-05-03T06:01:46.936Z,1013.89
2018-05-03T06:02:46.950Z,1013.84
2018-05-03T06:03:46.979Z,1013.92
2018-05-03T06:04:47.004Z,1013.92
2018-05-03T06:05:47.024Z,1013.86
2018-05-03T06:06:47.049Z,1013.88
2018-05-03T06:07:47.070Z,1013.89
2018-05-03T06:08:47.094Z,1013.85
2018-05-03T06:09:47.116Z,1013.86
2018-05-03T06:10:47.150Z,1013.92
2018-05-03T06:11:47.175Z,1013.95
2018-05-03T06:12:47.194Z,1014.02
2018-05-03T06:13:47.210Z,1014.06
2018-05-03T06:14:47.240Z,1014.03
2018-05-03T06:15:47.270Z,1014.06
2018-05-03T06:16:47.284Z,1014.18
2018-05-03T06:17:47.304Z,1014.15
2018-05-03T06:18:47.330Z,1014.14
2018-05-03T06:19:47.355Z,1014.10
2018-05-03T06:20:47.378Z,1014.13
2018-05-03T06:21:47.404Z,1014.18
2018-05-03T06:22:47.432Z,1014.24
2018-05-03T06:23:47.444Z,1014.22
2018-05-03T06:24:47.470Z,1014.24
2018-05-03T06:25:47.496Z,1014.20
2018-05-03T06:26:47.516Z,1014.23
2018-05-03T06:27:47.544Z,1014.23
2018-05-03T06:28:47.563Z,1014.25
2018-05-03T06:29:47.593Z,1014.22
2018-05-03T06:30:47.610Z,1014.24
2018-05-03T06:31:47.634Z,1014.27
2018-05-03T06:32:47.663Z,1014.31
2018-05-03T06:33:47.691Z,1014.26
2018-05-03T06:34:47.704Z,1014.35
2018-05-03T06:35:47.729Z,1014.30
2018-05-03T06:36:47.761Z,1014.31
2018-05-03T06:37:47.780Z,1014.33
2018-05-03T06:38:47.811Z,1014.44
2018-05-03T06:39:47.822Z,1014.38
2018-05-03T06:40:47.856Z,1014.42
2018-05-03T06:41:47.869Z,1014.44
2018-05-03T06:42:47.899Z,1014.50
2018-05-03T06:43:47.918Z,1014.47
2018-05-03T06:44:47.944Z,1014.50
2018-05-03T06:45:47.968Z,1014.53
2018-05-03T06:46:47.988Z,1014.62
2018-05-03T06:47:48.017Z,1014.66
2018-05-03T06:48:48.038Z,1014.59
2018-05-03T06:49:48.062Z,1014.62
2018-05-03T06:50:48.083Z,1014.59
2018-05-03T06:51:48.111Z,1014.64
2018-05-03T06:52:48.139Z,1014.65
2018-05-03T06:53:48.158Z,1014.63
2018-05-03T06:54:48.179Z,1014.69
2018-05-03T06:55:48.203Z,1014.73
2018-05-03T06:56:48.228Z,1014.82
2018-05-03T06:57:48.253Z,1014.73
2018-05-03T06:58:48.274Z,1014.76
2018-05-03T06:59:48.298Z,1014.78
2018-05-03T07:00:48.324Z,1014.79
2018-05-03T07:01:48.352Z,1014.87
2018-05-03T07:02:48.367Z,1014.80
2018-05-03T07:03:48.396Z,1014.85
2018-05-03T07:04:48.424Z,1014.85
2018-05-03T07:05:48.442Z,1014.87
2018-05-03T07:06:48.461Z,1014.90
2018-05-03T07:07:48.491Z,1014.94
2018-05-03T07:08:48.512Z,1014.91
2018-05-03T07:09:48.584Z,1014.92
2018-05-03T07:10:48.563Z,1014.92
2018-05-03T07:11:48.584Z,1014.95
2018-05-03T07:12:48.611Z,1015.00
2018-05-03T07:13:48.632Z,1015.05
2018-05-03T07:14:48.658Z,1015.05
2018-05-03T07:15:48.692Z,1015.08
2018-05-03T07:16:48.712Z,1015.16
2018-05-03T07:17:48.730Z,1015.25
2018-05-03T07:18:48.756Z,1015.19
2018-05-03T07:19:48.778Z,1015.19
2018-05-03T07:20:48.797Z,1015.22
2018-05-03T07:21:48.835Z,1015.20
2018-05-03T07:22:48.848Z,1015.28
2018-05-03T07:23:48.899Z,1015.27
2018-05-03T07:24:48.893Z,1015.30
2018-05-03T07:25:48.925Z,1015.30
2018-05-03T07:26:48.945Z,1015.39
2018-05-03T07:27:48.968Z,1015.37
2018-05-03T07:28:48.993Z,1015.36
2018-05-03T07:29:49.019Z,1015.34
2018-05-03T07:30:49.039Z,1015.34
2018-05-03T07:31:49.063Z,1015.38
2018-05-03T07:32:49.088Z,1015.38
2018-05-03T07:33:49.116Z,1015.37
2018-05-03T07:34:49.146Z,1015.40
2018-05-03T07:35:49.161Z,1015.41
2018-05-03T07:36:49.183Z,1015.52
2018-05-03T07:37:49.205Z,1015.47
2018-05-03T07:38:49.234Z,1015.48
2018-05-03T07:39:49.258Z,1015.44
2018-05-03T07:40:49.347Z,1015.49
2018-05-03T07:41:49.301Z,1015.53
2018-05-03T07:42:49.327Z,1015.60
2018-05-03T07:43:49.386Z,1015.60
2018-05-03T07:44:49.371Z,1015.63
2018-05-03T07:45:49.393Z,1015.68
2018-05-03T07:46:49.420Z,1015.71
2018-05-03T07:47:49.442Z,1015.71
2018-05-03T07:48:49.465Z,1015.73
2018-05-03T07:49:49.503Z,1015.71
2018-05-03T07:50:49.519Z,1015.79
2018-05-03T07:51:49.552Z,1015.82
2018-05-03T07:52:49.561Z,1015.79
2018-05-03T07:53:49.591Z,1015.81
2018-05-03T07:54:49.612Z,1015.84
2018-05-03T07:55:49.640Z,1015.83
2018-05-03T07:56:49.664Z,1015.81
2018-05-03T07:57:49.685Z,1015.87
2018-05-03T07:58:49.714Z,1015.87
2018-05-03T07:59:49.732Z,1015.94
2018-05-03T08:00:49.758Z,1015.94
2018-05-03T08:01:49.781Z,1015.92
2018-05-03T08:02:49.805Z,1015.92
2018-05-03T08:03:49.830Z,1015.93
2018-05-03T08:04:49.851Z,1015.98
2018-05-03T08:05:49.881Z,1015.97
2018-05-03T08:06:49.905Z,1015.99
2018-05-03T08:07:49.923Z,1015.99
2018-05-03T08:08:49.944Z,1016.01
2018-05-03T08:09:49.970Z,1016.07
2018-05-03T08:10:49.990Z,1016.08
2018-05-03T08:11:50.016Z,1016.08
2018-05-03T08:12:50.045Z,1016.05
2018-05-03T08:13:50.065Z,1016.10
2018-05-03T08:14:50.088Z,1016.11
2018-05-03T08:15:50.131Z,1016.16
2018-05-03T08:16:50.135Z,1016.13
2018-05-03T08:17:50.159Z,1016.17
2018-05-03T08:18:50.185Z,1016.13
2018-05-03T08:19:50.204Z,1016.24
2018-05-03T08:20:50.233Z,1016.25
2018-05-03T08:21:50.253Z,1016.27
2018-05-03T08:22:50.276Z,1016.30
2018-05-03T08:23:50.306Z,1016.31
2018-05-03T08:24:50.328Z,1016.41
2018-05-03T08:25:50.352Z,1016.37
2018-05-03T08:26:50.377Z,1016.36
2018-05-03T08:27:50.394Z,1016.35
2018-05-03T08:28:50.426Z,1016.33
2018-05-03T08:29:50.450Z,1016.39
2018-05-03T08:30:50.469Z,1016.45
2018-05-03T08:31:50.579Z,1016.41
2018-05-03T08:32:50.515Z,1016.44
2018-05-03T08:33:50.537Z,1016.50
2018-05-03T08:34:50.569Z,1016.50
2018-05-03T08:35:50.591Z,1016.48
2018-05-03T08:36:50.617Z,1016.53
2018-05-03T08:37:50.635Z,1016.48
2018-05-03T08:38:50.658Z,1016.54
2018-05-03T08:39:50.684Z,1016.56
2018-05-03T08:40:50.712Z,1016.55
2018-05-03T08:41:50.729Z,1016.59
2018-05-03T08:42:50.757Z,1016.62
2018-05-03T08:43:50.780Z,1016.54
2018-05-03T08:44:50.798Z,1016.53
2018-05-03T08:45:50.827Z,1016.52
2018-05-03T08:46:50.850Z,1016.56
2018-05-03T08:47:50.877Z,1016.59
2018-05-03T08:48:50.901Z,1016.56
2018-05-03T08:49:50.922Z,1016.57
2018-05-03T08:50:50.943Z,1016.64
2018-05-03T08:51:50.969Z,1016.79
2018-05-03T08:52:50.996Z,1016.62
2018-05-03T08:53:51.018Z,1016.60
2018-05-03T08:54:51.042Z,1016.63
2018-05-03T08:55:51.142Z,1016.70
2018-05-03T08:56:51.090Z,1016.64
2018-05-03T08:57:51.122Z,1016.74
2018-05-03T08:58:51.136Z,1016.71
2018-05-03T08:59:51.165Z,1016.71
2018-05-03T09:00:51.190Z,1016.73
2018-05-03T09:01:51.240Z,1016.70
2018-05-03T09:02:51.228Z,1016.77
2018-05-03T09:03:51.257Z,1016.77
2018-05-03T09:04:51.280Z,1016.76
2018-05-03T09:05:51.310Z,1016.80
2018-05-03T09:06:51.324Z,1016.77
2018-05-03T09:07:51.448Z,1016.80
2018-05-03T09:08:51.374Z,1016.74
2018-05-03T09:09:51.404Z,1016.87
2018-05-03T09:10:51.427Z,1016.82
2018-05-03T09:11:51.452Z,1016.85
2018-05-03T09:12:51.482Z,1016.80
2018-05-03T09:13:51.497Z,1016.96
2018-05-03T09:14:51.516Z,1016.99
2018-05-03T09:15:51.543Z,1016.96
2018-05-03T09:16:51.566Z,1016.89
2018-05-03T09:17:51.593Z,1016.99
2018-05-03T09:18:51.621Z,1017.14
2018-05-03T09:19:51.637Z,1017.02
2018-05-03T09:20:51.662Z,1017.00
2018-05-03T09:21:51.692Z,1016.98
2018-05-03T09:22:51.709Z,1016.94
2018-05-03T09:23:51.737Z,1016.98
2018-05-03T09:24:51.766Z,1017.00
2018-05-03T09:25:51.793Z,1017.07
2018-05-03T09:26:51.845Z,1017.04
2018-05-03T09:27:51.839Z,1017.09
2018-05-03T09:28:51.856Z,1017.17
2018-05-03T09:29:51.883Z,1017.19
2018-05-03T09:30:51.911Z,1017.20
2018-05-03T09:31:51.933Z,1017.29
2018-05-03T09:32:51.958Z,1017.21
2018-05-03T09:33:51.984Z,1017.29
2018-05-03T09:34:52.008Z,1017.29
2018-05-03T09:35:52.032Z,1017.30
2018-05-03T09:36:52.050Z,1017.32
2018-05-03T09:37:52.078Z,1017.35
2018-05-03T09:38:52.106Z,1017.37
2018-05-03T09:39:52.130Z,1017.35
2018-05-03T09:40:52.152Z,1017.42
2018-05-03T09:41:52.178Z,1017.40
2018-05-03T09:42:52.200Z,1017.47
2018-05-03T09:43:52.225Z,1017.46
2018-05-03T09:44:52.320Z,1017.33
2018-05-03T09:45:52.274Z,1017.36
2018-05-03T09:46:52.298Z,1017.42
2018-05-03T09:47:52.325Z,1017.47
2018-05-03T09:48:52.344Z,1017.39
2018-05-03T09:49:52.378Z,1017.45
2018-05-03T09:50:52.400Z,1017.48
2018-05-03T09:51:52.425Z,1017.49
2018-05-03T09:52:52.450Z,1017.49
2018-05-03T09:53:52.476Z,1017.47
2018-05-03T09:54:52.494Z,1017.55
2018-05-03T09:55:52.524Z,1017.57
2018-05-03T09:56:52.548Z,1017.53
2018-05-03T09:57:52.569Z,1017.57
2018-05-03T09:58:52.602Z,1017.56
2018-05-03T09:59:52.634Z,1017.53
2018-05-03T10:00:52.643Z,1017.56
2018-05-03T10:01:52.673Z,1017.55
2018-05-03T10:02:52.689Z,1017.62
2018-05-03T10:03:52.719Z,1017.63
2018-05-03T10:04:52.831Z,1017.62
2018-05-03T10:05:52.767Z,1017.62
2018-05-03T10:06:52.795Z,1017.61
2018-05-03T10:07:52.828Z,1017.60
2018-05-03T10:08:52.839Z,1017.59
2018-05-03T10:09:52.865Z,1017.69
2018-05-03T10:10:52.893Z,1017.70
2018-05-03T10:11:52.922Z,1017.72
2018-05-03T10:12:52.939Z,1017.83
2018-05-03T10:13:52.973Z,1017.80
2018-05-03T10:14:52.988Z,1017.85
2018-05-03T10:15:53.013Z,1017.93
2018-05-03T10:16:53.039Z,1017.91
2018-05-03T10:17:53.068Z,1017.93
2018-05-03T10:18:53.099Z,1018.03
2018-05-03T10:19:53.120Z,1018.03
2018-05-03T10:20:53.144Z,1018.12
2018-05-03T10:21:53.170Z,1018.11
2018-05-03T10:22:53.192Z,1018.09
2018-05-03T10:23:53.232Z,1018.06
2018-05-03T10:24:53.243Z,1018.07
2018-05-03T10:25:53.271Z,1018.21
2018-05-03T10:26:53.291Z,1018.40
2018-05-03T10:27:53.322Z,1018.29
2018-05-03T10:28:53.347Z,1018.34
2018-05-03T10:29:53.404Z,1018.49
2018-05-03T10:30:53.394Z,1018.44
2018-05-03T10:31:53.419Z,1018.36
2018-05-03T10:32:53.449Z,1018.45
2018-05-03T10:33:53.475Z,1018.55
2018-05-03T10:34:53.495Z,1018.48
2018-05-03T10:35:53.647Z,1018.51
2018-05-03T10:36:53.553Z,1018.53
2018-05-03T10:37:53.573Z,1018.54
2018-05-03T10:38:53.606Z,1018.49
2018-05-03T10:39:53.634Z,1018.57
2018-05-03T10:40:53.655Z,1018.51
2018-05-03T10:41:53.727Z,1018.53
2018-05-03T10:42:53.709Z,1018.47
2018-05-03T10:43:53.729Z,1018.51
2018-05-03T10:44:53.767Z,1018.51
2018-05-03T10:45:53.783Z,1018.58
2018-05-03T10:46:53.812Z,1018.62
2018-05-03T10:47:53.841Z,1018.68
2018-05-03T10:48:53.875Z,1018.71
2018-05-03T10:49:53.896Z,1018.78
2018-05-03T10:50:53.921Z,1018.78
2018-05-03T10:51:53.945Z,1018.74
2018-05-03T10:52:53.972Z,1018.87
2018-05-03T10:53:53.998Z,1018.88
2018-05-03T10:54:54.022Z,1018.88
2018-05-03T10:55:54.055Z,1018.93
2018-05-03T10:56:54.077Z,1018.93
2018-05-03T10:57:54.108Z,1019.15
2018-05-03T10:58:54.133Z,1019.14
2018-05-03T10:59:54.170Z,1019.22
2018-05-03T11:00:54.186Z,1019.29
2018-05-03T11:01:54.216Z,1019.17
2018-05-03T11:02:54.242Z,1019.16
2018-05-03T11:03:54.279Z,1019.15
2018-05-03T11:04:54.305Z,1019.20
2018-05-03T11:05:54.335Z,1019.29
2018-05-03T11:06:54.359Z,1019.33
2018-05-03T11:07:54.394Z,1019.42
2018-05-03T11:08:54.414Z,1019.57
2018-05-03T11:09:54.440Z,1019.72
2018-05-03T11:10:54.470Z,1019.76
2018-05-03T11:11:54.500Z,1019.71
2018-05-03T11:12:54.526Z,1019.57
2018-05-03T11:13:54.556Z,1019.75
2018-05-03T11:14:54.594Z,1019.66
2018-05-03T11:15:54.617Z,1019.55
2018-05-03T11:16:54.647Z,1019.59
2018-05-03T11:17:54.687Z,1019.51
2018-05-03T11:18:54.700Z,1019.41
2018-05-03T11:19:54.731Z,1019.45
2018-05-03T11:20:54.763Z,1019.61
2018-05-03T11:21:54.793Z,1019.75
2018-05-03T11:22:54.829Z,1019.64
2018-05-03T11:23:54.849Z,1019.57
2018-05-03T11:24:54.880Z,1019.62
2018-05-03T11:25:54.986Z,1019.78
2018-05-03T11:26:54.939Z,1019.97
2018-05-03T11:27:54.973Z,1019.56
2018-05-03T11:28:55.004Z,1019.57
2018-05-03T11:29:55.035Z,1019.96
2018-05-03T11:30:55.070Z,1019.66
2018-05-03T11:31:55.096Z,1019.77
2018-05-03T11:32:55.125Z,1019.78
2018-05-03T11:33:55.153Z,1020.01
2018-05-03T11:34:55.191Z,1019.83
2018-05-03T11:35:55.215Z,1019.77
2018-05-03T11:36:55.249Z,1020.16
2018-05-03T11:37:55.281Z,1020.45
2018-05-03T11:38:55.307Z,1020.01
2018-05-03T11:39:55.334Z,1020.61
2018-05-03T11:40:55.364Z,1020.65
2018-05-03T11:41:55.403Z,1020.20
2018-05-03T11:42:55.433Z,1020.77
2018-05-03T11:43:55.459Z,1021.34
2018-05-03T11:44:55.495Z,1021.35
2018-05-03T11:45:55.522Z,1021.04
2018-05-03T11:46:55.634Z,1020.82
2018-05-03T11:47:55.589Z,1021.75
2018-05-03T11:48:55.620Z,1021.76
2018-05-03T11:49:55.655Z,1022.68
2018-05-03T11:50:55.684Z,1024.13
2018-05-03T11:51:55.717Z,1024.90
2018-05-03T11:52:55.761Z,1023.40
2018-05-03T11:53:55.778Z,1026.35
2018-05-03T11:54:55.817Z,1026.70
2018-05-03T11:55:55.843Z,1028.52
2018-05-03T11:56:55.886Z,1026.58
2018-05-03T11:57:55.915Z,1025.16
2018-05-03T11:58:55.944Z,1022.20
2018-05-03T11:59:55.987Z,1024.40
2018-05-03T12:00:56.011Z,1030.40
2018-05-03T12:01:56.044Z,1028.28
2018-05-03T12:02:56.079Z,1027.70
2018-05-03T12:03:56.114Z,1027.70
2018-05-03T12:04:56.144Z,1026.77
2018-05-03T12:05:56.221Z,1024.30